createdAt,value
2022-12-20T00:33:50.016Z,50.866634
2022-12-20T00:34:50.003Z,50.866611
2022-12-20T00:35:49.982Z,50.866604
2022-12-20T00:36:49.972Z,50.866680
2022-12-20T00:37:49.983Z,50.866669
2022-12-20T00:38:50.970Z,50.866623
2022-12-20T00:39:51.741Z,50.866623
2022-12-20T00:40:50.946Z,50.866634
2022-12-20T00:41:49.944Z,50.866631
2022-12-20T00:42:49.943Z,50.866627
2022-12-20T00:43:49.937Z,50.866558
2022-12-20T00:44:49.911Z,50.866676
2022-12-20T00:45:51.745Z,50.866703
2022-12-20T00:46:49.936Z,50.866642
2022-12-20T00:47:49.894Z,50.866657
2022-12-20T00:48:49.885Z,50.866798
2022-12-20T00:49:49.872Z,50.866787
2022-12-20T00:50:49.867Z,50.866806
2022-12-20T00:51:49.875Z,50.866791
2022-12-20T00:52:49.852Z,50.866787
2022-12-20T00:53:49.847Z,50.866814
2022-12-20T00:54:49.833Z,50.866779
2022-12-20T00:55:49.834Z,50.866787
2022-12-20T00:56:49.817Z,50.866768
2022-12-20T00:57:49.811Z,50.866821
2022-12-20T00:58:49.826Z,50.866833
2022-12-20T00:59:49.820Z,50.866810
2022-12-20T01:00:55.791Z,50.866768
2022-12-20T01:01:52.618Z,50.866783
2022-12-20T01:02:50.702Z,50.866856
2022-12-20T01:03:50.512Z,50.866749
2022-12-20T01:04:49.757Z,50.866776
2022-12-20T01:05:49.752Z,50.866795
2022-12-20T01:06:49.739Z,50.866825
2022-12-20T01:07:49.742Z,50.866837
2022-12-20T01:08:49.773Z,50.866810
2022-12-20T01:09:49.720Z,50.866856
2022-12-20T01:10:49.712Z,50.866871
2022-12-20T01:11:49.717Z,50.867027
2022-12-20T01:12:49.711Z,50.867138
2022-12-20T01:13:50.365Z,50.867218
2022-12-20T01:14:49.674Z,50.867233
2022-12-20T01:15:50.723Z,50.867043
2022-12-20T01:16:49.720Z,50.866962
2022-12-20T01:17:49.663Z,50.866692
2022-12-20T01:18:49.651Z,50.866791
2022-12-20T01:19:49.637Z,50.866791
2022-12-20T01:20:49.640Z,50.866802
2022-12-20T01:21:49.638Z,50.866871
2022-12-20T01:22:49.635Z,50.866875
2022-12-20T01:23:49.619Z,50.866840
2022-12-20T01:24:49.608Z,50.866913
2022-12-20T01:25:49.607Z,50.866901
2022-12-20T01:26:49.625Z,50.866898
2022-12-20T01:27:49.583Z,50.866833
2022-12-20T01:28:49.567Z,50.866833
2022-12-20T01:29:49.567Z,50.866829
2022-12-20T01:30:49.584Z,50.866814
2022-12-20T01:31:49.633Z,50.866837
2022-12-20T01:32:49.536Z,50.866821
2022-12-20T01:33:49.530Z,50.866810
2022-12-20T01:34:50.250Z,50.866821
2022-12-20T01:35:49.556Z,50.866821
2022-12-20T01:36:49.558Z,50.866859
2022-12-20T01:37:49.514Z,50.866840
2022-12-20T01:38:49.495Z,50.866783
2022-12-20T01:39:49.498Z,50.866821
2022-12-20T01:40:49.475Z,50.866825
2022-12-20T01:41:49.492Z,50.866863
2022-12-20T01:42:49.459Z,50.866764
2022-12-20T01:43:49.453Z,50.866707
2022-12-20T01:44:49.465Z,50.866692
2022-12-20T01:45:49.491Z,50.866665
2022-12-20T01:46:49.429Z,50.866512
2022-12-20T01:47:50.290Z,50.866383
2022-12-20T01:48:49.442Z,50.866219
2022-12-20T01:49:49.410Z,50.866261
2022-12-20T01:50:49.412Z,50.866352
2022-12-20T01:51:49.404Z,50.866405
2022-12-20T01:52:49.397Z,50.866447
2022-12-20T01:53:49.376Z,50.866497
2022-12-20T01:54:49.390Z,50.866501
2022-12-20T01:55:53.340Z,50.866467
2022-12-20T01:56:49.367Z,50.866344
2022-12-20T01:57:49.345Z,50.866367
2022-12-20T01:58:49.353Z,50.866478
2022-12-20T01:59:50.335Z,50.866634
2022-12-20T02:00:49.381Z,50.866665
2022-12-20T02:01:49.953Z,50.866692
2022-12-20T02:02:49.516Z,50.866692
2022-12-20T02:03:49.310Z,50.866634
2022-12-20T02:04:49.306Z,50.866726
2022-12-20T02:05:49.285Z,50.866734
2022-12-20T02:06:49.306Z,50.866730
2022-12-20T02:07:49.277Z,50.866852
2022-12-20T02:08:49.253Z,50.866810
2022-12-20T02:09:49.258Z,50.866817
2022-12-20T02:10:49.252Z,50.866837
2022-12-20T02:11:49.242Z,50.866821
2022-12-20T02:12:49.233Z,50.866810
2022-12-20T02:13:49.765Z,50.866745
2022-12-20T02:14:49.267Z,50.866661
2022-12-20T02:15:49.210Z,50.866634
2022-12-20T02:16:49.271Z,50.866657
2022-12-20T02:17:50.840Z,50.866623
2022-12-20T02:18:49.203Z,50.866680
2022-12-20T02:19:50.179Z,50.866680
2022-12-20T02:20:49.182Z,50.866734
2022-12-20T02:21:49.166Z,50.866730
2022-12-20T02:22:49.155Z,50.866665
2022-12-20T02:23:49.846Z,50.866619
2022-12-20T02:24:49.769Z,50.866657
2022-12-20T02:25:50.759Z,50.866695
2022-12-20T02:26:49.147Z,50.866665
2022-12-20T02:27:49.863Z,50.866684
2022-12-20T02:28:49.119Z,50.866749
2022-12-20T02:29:49.099Z,50.866795
2022-12-20T02:30:49.094Z,50.866745
2022-12-20T02:31:49.141Z,50.866787
2022-12-20T02:32:49.078Z,50.866627
2022-12-20T02:33:50.874Z,50.866539
2022-12-20T02:34:49.062Z,50.866665
2022-12-20T02:35:49.057Z,50.866779
2022-12-20T02:36:49.763Z,50.866791
2022-12-20T02:37:49.847Z,50.866695
2022-12-20T02:38:49.038Z,50.866810
2022-12-20T02:39:49.026Z,50.866978
2022-12-20T02:40:49.764Z,50.867294
2022-12-20T02:41:49.842Z,50.867294
2022-12-20T02:42:49.004Z,50.866833
2022-12-20T02:43:50.836Z,50.866779
2022-12-20T02:44:49.005Z,50.866772
2022-12-20T02:45:48.995Z,50.866833
2022-12-20T02:46:49.846Z,50.866768
2022-12-20T02:47:48.964Z,50.866772
2022-12-20T02:48:48.944Z,50.866741
2022-12-20T02:49:48.941Z,50.866817
2022-12-20T02:50:48.933Z,50.866772
2022-12-20T02:51:48.962Z,50.866806
2022-12-20T02:52:48.913Z,50.866703
2022-12-20T02:53:48.905Z,50.866741
2022-12-20T02:54:48.908Z,50.866673
2022-12-20T02:55:48.901Z,50.866852
2022-12-20T02:56:48.912Z,50.866787
2022-12-20T02:57:50.358Z,50.866768
2022-12-20T02:58:48.875Z,50.866829
2022-12-20T02:59:48.869Z,50.866772
2022-12-20T03:00:48.855Z,50.866859
2022-12-20T03:01:49.896Z,50.866867
2022-12-20T03:02:50.950Z,50.866833
2022-12-20T03:03:50.488Z,50.866817
2022-12-20T03:04:48.826Z,50.866695
2022-12-20T03:05:48.815Z,50.866619
2022-12-20T03:06:48.873Z,50.866718
2022-12-20T03:07:49.336Z,50.866856
2022-12-20T03:08:50.339Z,50.866882
2022-12-20T03:09:48.789Z,50.866840
2022-12-20T03:10:48.761Z,50.866833
2022-12-20T03:11:50.283Z,50.866810
2022-12-20T03:12:48.777Z,50.866856
2022-12-20T03:13:49.869Z,50.866856
2022-12-20T03:14:48.736Z,50.866798
2022-12-20T03:15:50.362Z,50.866871
2022-12-20T03:16:48.772Z,50.866844
2022-12-20T03:17:48.717Z,50.866776
2022-12-20T03:18:49.351Z,50.866840
2022-12-20T03:19:49.725Z,50.866787
2022-12-20T03:20:48.702Z,50.866886
2022-12-20T03:21:48.667Z,50.866898
2022-12-20T03:22:48.788Z,50.866913
2022-12-20T03:23:48.707Z,50.867119
2022-12-20T03:24:48.658Z,50.866840
2022-12-20T03:25:49.283Z,50.866714
2022-12-20T03:26:49.664Z,50.866550
2022-12-20T03:27:48.654Z,50.866581
2022-12-20T03:28:49.386Z,50.866779
2022-12-20T03:29:48.616Z,50.866817
2022-12-20T03:30:48.719Z,50.866920
2022-12-20T03:31:48.614Z,50.866722
2022-12-20T03:32:49.826Z,50.866642
2022-12-20T03:33:48.585Z,50.866688
2022-12-20T03:34:48.578Z,50.866825
2022-12-20T03:35:48.584Z,50.866905
2022-12-20T03:36:48.571Z,50.866901
2022-12-20T03:37:49.361Z,50.867050
2022-12-20T03:38:48.875Z,50.867058
2022-12-20T03:39:49.557Z,50.866924
2022-12-20T03:40:48.547Z,50.866573
2022-12-20T03:41:48.564Z,50.866631
2022-12-20T03:42:49.368Z,50.866680
2022-12-20T03:43:49.370Z,50.866474
2022-12-20T03:44:48.568Z,50.866760
2022-12-20T03:45:49.628Z,50.866772
2022-12-20T03:46:49.344Z,50.866932
2022-12-20T03:47:49.280Z,50.866863
2022-12-20T03:48:48.500Z,50.866646
2022-12-20T03:49:48.476Z,50.866673
2022-12-20T03:50:48.452Z,50.866486
2022-12-20T03:51:48.447Z,50.866516
2022-12-20T03:52:48.462Z,50.866745
2022-12-20T03:53:52.275Z,50.866730
2022-12-20T03:54:49.369Z,50.866978
2022-12-20T03:55:50.295Z,50.867050
2022-12-20T03:56:48.409Z,50.867252
2022-12-20T03:57:48.402Z,50.866875
2022-12-20T03:58:48.406Z,50.867016
2022-12-20T03:59:48.403Z,50.867344
2022-12-20T04:00:48.378Z,50.867065
2022-12-20T04:01:48.516Z,50.866745
2022-12-20T04:02:48.522Z,50.866745
2022-12-20T04:03:49.496Z,50.866737
2022-12-20T04:04:48.357Z,50.866714
2022-12-20T04:05:48.333Z,50.867023
2022-12-20T04:06:48.383Z,50.866901
2022-12-20T04:07:48.321Z,50.866940
2022-12-20T04:08:48.310Z,50.867069
2022-12-20T04:09:48.306Z,50.866550
2022-12-20T04:10:49.302Z,50.866852
2022-12-20T04:11:48.290Z,50.867718
2022-12-20T04:12:48.286Z,50.867069
2022-12-20T04:13:48.272Z,50.866226
2022-12-20T04:14:48.270Z,50.866726
2022-12-20T04:15:48.815Z,50.866711
2022-12-20T04:16:48.264Z,50.866650
2022-12-20T04:17:48.251Z,50.866779
2022-12-20T04:18:48.239Z,50.866753
2022-12-20T04:19:48.259Z,50.866806
2022-12-20T04:20:48.217Z,50.866718
2022-12-20T04:21:48.219Z,50.866730
2022-12-20T04:22:48.211Z,50.866840
2022-12-20T04:23:48.311Z,50.866829
2022-12-20T04:24:48.201Z,50.866787
2022-12-20T04:25:48.204Z,50.866497
2022-12-20T04:26:48.186Z,50.866459
2022-12-20T04:27:48.202Z,50.866508
2022-12-20T04:28:48.164Z,50.866482
2022-12-20T04:29:49.860Z,50.866554
2022-12-20T04:30:48.185Z,50.866463
2022-12-20T04:31:49.218Z,50.866520
2022-12-20T04:32:48.125Z,50.866505
2022-12-20T04:33:48.139Z,50.866520
2022-12-20T04:34:48.111Z,50.866455
2022-12-20T04:35:48.105Z,50.866501
2022-12-20T04:36:48.103Z,50.866467
2022-12-20T04:37:48.102Z,50.866646
2022-12-20T04:38:48.096Z,50.866627
2022-12-20T04:39:48.077Z,50.866459
2022-12-20T04:40:48.073Z,50.866425
2022-12-20T04:41:48.089Z,50.866428
2022-12-20T04:42:48.052Z,50.866417
2022-12-20T04:43:48.082Z,50.866653
2022-12-20T04:44:48.042Z,50.866493
2022-12-20T04:45:48.032Z,50.866390
2022-12-20T04:46:48.872Z,50.866394
2022-12-20T04:47:48.008Z,50.866425
2022-12-20T04:48:57.988Z,50.866566
2022-12-20T04:49:52.783Z,50.866589
2022-12-20T04:50:47.993Z,50.866535
2022-12-20T04:51:47.991Z,50.866482
2022-12-20T04:52:48.502Z,50.866497
2022-12-20T04:53:48.073Z,50.866409
2022-12-20T04:54:47.959Z,50.866459
2022-12-20T04:55:47.960Z,50.866436
2022-12-20T04:56:47.935Z,50.866547
2022-12-20T04:57:47.926Z,50.866699
2022-12-20T04:58:47.926Z,50.866405
2022-12-20T04:59:47.919Z,50.866592
2022-12-20T05:00:47.926Z,50.866608
2022-12-20T05:01:48.110Z,50.866493
2022-12-20T05:02:48.096Z,50.866772
2022-12-20T05:03:47.956Z,50.866783
2022-12-20T05:04:47.877Z,50.866734
2022-12-20T05:05:47.861Z,50.866798
2022-12-20T05:06:47.856Z,50.866726
2022-12-20T05:07:47.864Z,50.866760
2022-12-20T05:08:47.842Z,50.866734
2022-12-20T05:09:47.851Z,50.866741
2022-12-20T05:10:47.829Z,50.866745
2022-12-20T05:11:47.815Z,50.866779
2022-12-20T05:12:47.819Z,50.866734
2022-12-20T05:13:48.360Z,50.866768
2022-12-20T05:14:47.793Z,50.866795
2022-12-20T05:15:47.851Z,50.866802
2022-12-20T05:16:47.782Z,50.866745
2022-12-20T05:17:50.805Z,50.866764
2022-12-20T05:18:49.527Z,50.866829
2022-12-20T05:19:50.367Z,50.866741
2022-12-20T05:20:48.888Z,50.866726
2022-12-20T05:21:47.742Z,50.866745
2022-12-20T05:22:47.729Z,50.866726
2022-12-20T05:23:53.295Z,50.866772
2022-12-20T05:24:48.710Z,50.866791
2022-12-20T05:25:47.701Z,50.866692
2022-12-20T05:26:47.699Z,50.866787
2022-12-20T05:27:47.695Z,50.866699
2022-12-20T05:28:47.699Z,50.866741
2022-12-20T05:29:47.682Z,50.866692
2022-12-20T05:30:47.666Z,50.866734
2022-12-20T05:31:47.907Z,50.866787
2022-12-20T05:32:47.650Z,50.866707
2022-12-20T05:33:47.643Z,50.866787
2022-12-20T05:34:47.641Z,50.866692
2022-12-20T05:47:54.921Z,50.866364
2022-12-20T05:48:54.903Z,50.866684
2022-12-20T05:49:54.965Z,50.866730
2022-12-20T05:50:54.977Z,50.866795
2022-12-20T05:51:55.772Z,50.866802
2022-12-20T05:52:54.880Z,50.866978
2022-12-20T05:53:55.773Z,50.866798
2022-12-20T05:54:54.882Z,50.866745
2022-12-20T05:55:54.877Z,50.866722
2022-12-20T05:56:54.851Z,50.866745
2022-12-20T05:57:59.266Z,50.866776
2022-12-20T05:58:54.848Z,50.866783
2022-12-20T05:59:55.826Z,50.866798
2022-12-20T06:00:55.826Z,50.866833
2022-12-20T06:01:56.008Z,50.866787
2022-12-20T06:02:55.551Z,50.866837
2022-12-20T06:03:54.877Z,50.866779
2022-12-20T06:04:54.785Z,50.866814
2022-12-20T06:05:55.364Z,50.866760
2022-12-20T06:06:56.358Z,50.866737
2022-12-20T06:07:54.762Z,50.866734
2022-12-20T06:08:54.750Z,50.866726
2022-12-20T06:09:54.755Z,50.866772
2022-12-20T21:40:47.361Z,50.866695
2022-12-20T21:41:47.359Z,50.866684
2022-12-20T21:42:47.367Z,50.866714
2022-12-20T21:43:47.337Z,50.866714
2022-12-20T21:44:47.322Z,50.866764
2022-12-20T21:45:47.383Z,50.866695
2022-12-20T21:46:47.415Z,50.866745
2022-12-20T21:47:47.305Z,50.866680
2022-12-20T21:48:47.304Z,50.866642
2022-12-20T21:49:47.311Z,50.866692
2022-12-20T21:50:47.271Z,50.866783
2022-12-20T21:51:47.279Z,50.866768
2022-12-20T21:52:47.261Z,50.866776
2022-12-20T21:53:47.272Z,50.866756
2022-12-20T21:54:47.253Z,50.866718
2022-12-20T21:55:47.235Z,50.866646
2022-12-20T21:56:47.253Z,50.866676
2022-12-20T21:57:47.211Z,50.866665
2022-12-20T21:58:47.217Z,50.866718
2022-12-20T21:59:47.209Z,50.866745
2022-12-20T22:00:52.606Z,50.866718
2022-12-20T22:01:49.315Z,50.866741
2022-12-20T22:02:48.263Z,50.866711
2022-12-20T22:03:47.203Z,50.866737
2022-12-20T22:04:47.172Z,50.866688
2022-12-20T22:05:47.195Z,50.866707
2022-12-20T22:06:51.044Z,50.866684
2022-12-20T22:07:47.141Z,50.866673
2022-12-20T22:08:47.134Z,50.866684
2022-12-20T22:09:47.978Z,50.866673
2022-12-20T22:10:47.124Z,50.866711
2022-12-20T22:11:47.124Z,50.866638
2022-12-20T22:12:47.092Z,50.866627
2022-12-20T22:13:47.114Z,50.866608
2022-12-20T22:14:47.094Z,50.866600
2022-12-20T22:15:47.090Z,50.866749
2022-12-20T22:16:47.120Z,50.866684
2022-12-20T22:17:47.065Z,50.866711
2022-12-20T22:18:47.056Z,50.866829
2022-12-20T22:19:47.057Z,50.866920
2022-12-20T22:20:47.042Z,50.866718
2022-12-20T22:21:49.777Z,50.866684
2022-12-20T22:22:48.019Z,50.866802
2022-12-20T22:23:47.030Z,50.866745
2022-12-20T22:24:47.028Z,50.866657
2022-12-20T22:25:46.993Z,50.866714
2022-12-20T22:26:47.004Z,50.866722
2022-12-20T22:27:46.976Z,50.866768
2022-12-20T22:28:47.069Z,50.866760
2022-12-20T22:29:46.963Z,50.866776
2022-12-20T22:30:46.951Z,50.866833
2022-12-20T22:31:47.044Z,50.866802
2022-12-20T22:32:46.951Z,50.866882
2022-12-20T22:33:46.945Z,50.866985
2022-12-20T22:34:46.914Z,50.867054
2022-12-20T22:35:46.918Z,50.866951
2022-12-20T22:36:46.904Z,50.866875
2022-12-20T22:37:46.886Z,50.866982
2022-12-20T22:38:46.945Z,50.866867
2022-12-20T22:39:46.885Z,50.866898
2022-12-20T22:40:46.881Z,50.866867
2022-12-20T22:41:46.869Z,50.866825
2022-12-20T22:42:46.854Z,50.866791
2022-12-20T22:43:46.840Z,50.866821
2022-12-20T22:44:46.842Z,50.866814
2022-12-20T22:45:46.890Z,50.866791
2022-12-20T22:46:46.847Z,50.866791
2022-12-20T22:47:46.817Z,50.866817
2022-12-20T22:48:46.803Z,50.866795
2022-12-20T22:49:46.817Z,50.866802
2022-12-20T22:50:46.792Z,50.866768
2022-12-20T22:51:55.163Z,50.866810
2022-12-20T22:52:48.800Z,50.866817
2022-12-20T22:53:46.763Z,50.866802
2022-12-20T22:54:46.771Z,50.866776
2022-12-20T22:55:46.739Z,50.866791
2022-12-20T22:56:46.745Z,50.866760
2022-12-20T22:57:48.559Z,50.866802
2022-12-20T22:58:48.606Z,50.866817
2022-12-20T22:59:46.736Z,50.866848
2022-12-20T23:00:46.696Z,50.866898
2022-12-20T23:01:47.249Z,50.866913
2022-12-20T23:02:46.959Z,50.866875
2022-12-20T23:03:46.706Z,50.866894
2022-12-20T23:04:46.669Z,50.866890
2022-12-20T23:05:46.654Z,50.866879
2022-12-20T23:06:46.658Z,50.866928
2022-12-20T23:07:46.736Z,50.866928
2022-12-20T23:08:47.624Z,50.866928
2022-12-20T23:09:46.648Z,50.866947
2022-12-20T23:10:46.626Z,50.866901
2022-12-20T23:11:46.623Z,50.866875
2022-12-20T23:12:46.630Z,50.866879
2022-12-20T23:13:46.600Z,50.866871
2022-12-20T23:14:46.599Z,50.866905
2022-12-20T23:15:46.579Z,50.866924
2022-12-20T23:16:46.643Z,50.866852
2022-12-20T23:17:46.581Z,50.866901
2022-12-20T23:18:46.591Z,50.866901
2022-12-20T23:19:46.549Z,50.866871
2022-12-20T23:20:46.536Z,50.866890
2022-12-20T23:21:46.528Z,50.866909
2022-12-20T23:22:46.515Z,50.866898
2022-12-20T23:23:50.939Z,50.866890
2022-12-20T23:24:48.509Z,50.866875
2022-12-20T23:25:46.546Z,50.866859
2022-12-20T23:26:46.500Z,50.866859
2022-12-20T23:27:47.041Z,50.866833
2022-12-20T23:28:46.474Z,50.866890
2022-12-20T23:29:46.485Z,50.866867
2022-12-20T23:30:46.493Z,50.866848
2022-12-20T23:31:48.607Z,50.866848
2022-12-20T23:32:46.518Z,50.866833
2022-12-20T23:33:48.052Z,50.866821
2022-12-20T23:34:46.444Z,50.866840
2022-12-20T23:35:46.421Z,50.866810
2022-12-20T23:36:48.523Z,50.866871
2022-12-20T23:37:46.400Z,50.866852
2022-12-20T23:38:47.041Z,50.866863
2022-12-20T23:39:46.383Z,50.866879
2022-12-20T23:40:46.395Z,50.866867
2022-12-20T23:41:46.398Z,50.866814
2022-12-20T23:42:46.380Z,50.866833
2022-12-20T23:43:46.360Z,50.866879
2022-12-20T23:44:46.362Z,50.866871
2022-12-20T23:45:46.423Z,50.866848
2022-12-20T23:46:46.336Z,50.866833
2022-12-20T23:47:46.331Z,50.866856
2022-12-20T23:48:47.040Z,50.866837
2022-12-20T23:49:46.305Z,50.866810
2022-12-20T23:50:46.300Z,50.866695
2022-12-20T23:51:46.284Z,50.866776
2022-12-20T23:52:46.291Z,50.866917
2022-12-20T23:53:46.277Z,50.866978
2022-12-20T23:54:47.189Z,50.867313
2022-12-20T23:55:46.255Z,50.867161
2022-12-20T23:56:46.262Z,50.866970
2022-12-20T23:57:46.256Z,50.866814
2022-12-20T23:58:46.259Z,50.866417
2022-12-20T23:59:46.229Z,50.866272
